sensor_id;sensor_type;location;lat;lon;timestamp;pressure;altitude;pressure_sealevel;temperature;humidity
59009;BME280;44794;42.652;23.318;2023-10-31T00:02:01;94755.66;;;9.35;100.00
59009;BME280;44794;42.652;23.318;2023-10-31T00:04:26;94746.44;;;9.31;100.00
59009;BME280;44794;42.652;23.318;2023-10-31T00:06:51;94754.09;;;9.32;100.00
59009;BME280;44794;42.652;23.318;2023-10-31T00:09:17;94760.31;;;9.30;100.00
59009;BME280;44794;42.652;23.318;2023-10-31T00:11:44;94751.94;;;9.26;100.00
59009;BME280;44794;42.652;23.318;2023-10-31T00:14:09;94739.91;;;9.25;100.00
59009;BME280;44794;42.652;23.318;2023-10-31T00:16:35;94741.44;;;9.28;100.00
59009;BME280;44794;42.652;23.318;2023-10-31T00:19:00;94740.53;;;9.29;100.00
59009;BME280;44794;42.652;23.318;2023-10-31T00:21:26;94736.47;;;9.37;100.00
59009;BME280;44794;42.652;23.318;2023-10-31T00:23:51;94734.75;;;9.38;100.00
59009;BME280;44794;42.652;23.318;2023-10-31T00:26:17;94740.13;;;9.35;100.00
59009;BME280;44794;42.652;23.318;2023-10-31T00:28:43;94736.19;;;9.42;100.00
59009;BME280;44794;42.652;23.318;2023-10-31T00:31:09;94741.59;;;9.39;100.00
59009;BME280;44794;42.652;23.318;2023-10-31T00:33:37;94734.75;;;9.38;100.00
59009;BME280;44794;42.652;23.318;2023-10-31T00:36:03;94739.00;;;9.39;100.00
59009;BME280;44794;42.652;23.318;2023-10-31T00:38:28;94728.50;;;9.40;100.00
59009;BME280;44794;42.652;23.318;2023-10-31T00:40:54;94736.00;;;9.45;100.00
59009;BME280;44794;42.652;23.318;2023-10-31T00:43:19;94732.66;;;9.43;100.00
59009;BME280;44794;42.652;23.318;2023-10-31T00:45:44;94725.50;;;9.46;100.00
59009;BME280;44794;42.652;23.318;2023-10-31T00:48:10;94728.50;;;9.40;100.00
59009;BME280;44794;42.652;23.318;2023-10-31T00:50:35;94729.97;;;9.32;100.00
59009;BME280;44794;42.652;23.318;2023-10-31T00:53:01;94717.31;;;9.27;100.00
59009;BME280;44794;42.652;23.318;2023-10-31T00:55:26;94723.31;;;9.28;100.00
59009;BME280;44794;42.652;23.318;2023-10-31T00:57:52;94719.16;;;9.25;100.00
59009;BME280;44794;42.652;23.318;2023-10-31T01:00:17;94717.72;;;9.21;100.00
59009;BME280;44794;42.652;23.318;2023-10-31T01:02:43;94722.91;;;9.21;100.00
59009;BME280;44794;42.652;23.318;2023-10-31T01:05:08;94705.38;;;9.12;100.00
59009;BME280;44794;42.652;23.318;2023-10-31T01:07:34;94703.94;;;9.08;100.00
59009;BME280;44794;42.652;23.318;2023-10-31T01:10:00;94702.56;;;9.03;100.00
59009;BME280;44794;42.652;23.318;2023-10-31T01:12:26;94702.97;;;8.97;100.00
59009;BME280;44794;42.652;23.318;2023-10-31T01:14:54;94704.09;;;8.93;100.00
59009;BME280;44794;42.652;23.318;2023-10-31T01:17:20;94695.63;;;8.91;100.00
59009;BME280;44794;42.652;23.318;2023-10-31T01:19:47;94696.53;;;8.90;100.00
59009;BME280;44794;42.652;23.318;2023-10-31T01:22:12;94702.13;;;8.84;100.00
59009;BME280;44794;42.652;23.318;2023-10-31T01:24:37;94695.69;;;8.77;100.00
59009;BME280;44794;42.652;23.318;2023-10-31T01:27:03;94699.50;;;8.72;100.00
59009;BME280;44794;42.652;23.318;2023-10-31T01:29:29;94688.28;;;8.71;100.00
59009;BME280;44794;42.652;23.318;2023-10-31T01:31:54;94685.06;;;8.68;100.00
59009;BME280;44794;42.652;23.318;2023-10-31T01:34:20;94680.94;;;8.65;100.00
59009;BME280;44794;42.652;23.318;2023-10-31T01:36:45;94681.78;;;8.66;100.00
59009;BME280;44794;42.652;23.318;2023-10-31T01:39:12;94687.78;;;8.66;100.00
59009;BME280;44794;42.652;23.318;2023-10-31T01:41:41;94675.97;;;8.62;100.00
59009;BME280;44794;42.652;23.318;2023-10-31T01:44:06;94673.47;;;8.61;100.00
59009;BME280;44794;42.652;23.318;2023-10-31T01:46:31;94675.53;;;8.56;100.00
59009;BME280;44794;42.652;23.318;2023-10-31T01:48:57;94683.50;;;8.53;100.00
59009;BME280;44794;42.652;23.318;2023-10-31T01:51:22;94680.06;;;8.52;100.00
59009;BME280;44794;42.652;23.318;2023-10-31T01:53:48;94677.06;;;8.46;100.00
59009;BME280;44794;42.652;23.318;2023-10-31T01:56:14;94679.72;;;8.44;100.00
59009;BME280;44794;42.652;23.318;2023-10-31T01:58:39;94684.84;;;8.46;100.00
59009;BME280;44794;42.652;23.318;2023-10-31T02:01:07;94664.94;;;8.46;100.00
59009;BME280;44794;42.652;23.318;2023-10-31T02:03:32;94657.59;;;8.40;100.00
59009;BME280;44794;42.652;23.318;2023-10-31T02:05:59;94667.47;;;8.34;100.00
59009;BME280;44794;42.652;23.318;2023-10-31T02:08:27;94664.47;;;8.27;100.00
59009;BME280;44794;42.652;23.318;2023-10-31T02:10:52;94658.75;;;8.22;100.00
59009;BME280;44794;42.652;23.318;2023-10-31T02:13:18;94656.78;;;8.26;100.00
59009;BME280;44794;42.652;23.318;2023-10-31T02:15:45;94655.16;;;8.25;100.00
59009;BME280;44794;42.652;23.318;2023-10-31T02:18:11;94657.41;;;8.17;100.00
59009;BME280;44794;42.652;23.318;2023-10-31T02:20:36;94654.22;;;8.12;100.00
59009;BME280;44794;42.652;23.318;2023-10-31T02:23:03;94649.25;;;8.09;100.00
59009;BME280;44794;42.652;23.318;2023-10-31T02:25:28;94647.31;;;8.13;100.00
59009;BME280;44794;42.652;23.318;2023-10-31T02:27:54;94639.44;;;8.14;100.00
59009;BME280;44794;42.652;23.318;2023-10-31T02:30:20;94634.19;;;8.16;100.00
59009;BME280;44794;42.652;23.318;2023-10-31T02:32:45;94643.56;;;8.04;100.00
59009;BME280;44794;42.652;23.318;2023-10-31T02:35:11;94643.84;;;8.00;100.00
59009;BME280;44794;42.652;23.318;2023-10-31T02:37:36;94644.94;;;7.96;100.00
59009;BME280;44794;42.652;23.318;2023-10-31T02:40:02;94644.22;;;7.94;100.00
59009;BME280;44794;42.652;23.318;2023-10-31T02:42:28;94641.53;;;7.95;100.00
59009;BME280;44794;42.652;23.318;2023-10-31T02:44:54;94634.59;;;7.96;100.00
59009;BME280;44794;42.652;23.318;2023-10-31T02:47:20;94637.81;;;7.99;100.00
59009;BME280;44794;42.652;23.318;2023-10-31T02:49:45;94632.38;;;8.04;100.00
59009;BME280;44794;42.652;23.318;2023-10-31T02:52:11;94632.38;;;8.04;100.00
59009;BME280;44794;42.652;23.318;2023-10-31T02:54:36;94638.56;;;8.01;100.00
59009;BME280;44794;42.652;23.318;2023-10-31T02:57:02;94633.63;;;8.11;100.00
59009;BME280;44794;42.652;23.318;2023-10-31T02:59:27;94626.44;;;8.16;100.00
59009;BME280;44794;42.652;23.318;2023-10-31T03:01:53;94636.59;;;8.19;100.00
59009;BME280;44794;42.652;23.318;2023-10-31T03:04:19;94640.84;;;8.20;100.00
59009;BME280;44794;42.652;23.318;2023-10-31T03:06:44;94636.59;;;8.19;100.00
59009;BME280;44794;42.652;23.318;2023-10-31T03:09:10;94634.66;;;8.22;100.00
59009;BME280;44794;42.652;23.318;2023-10-31T03:11:35;94628.66;;;8.22;100.00
59009;BME280;44794;42.652;23.318;2023-10-31T03:14:01;94638.44;;;8.17;100.00
59009;BME280;44794;42.652;23.318;2023-10-31T03:16:26;94644.25;;;8.20;100.00
59009;BME280;44794;42.652;23.318;2023-10-31T03:18:52;94637.72;;;8.15;100.00
59009;BME280;44794;42.652;23.318;2023-10-31T03:21:17;94631.78;;;8.13;100.00
59009;BME280;44794;42.652;23.318;2023-10-31T03:23:49;94627.72;;;8.09;100.00
59009;BME280;44794;42.652;23.318;2023-10-31T03:26:19;94626.09;;;8.08;100.00
59009;BME280;44794;42.652;23.318;2023-10-31T03:28:45;94623.78;;;8.03;100.00
59009;BME280;44794;42.652;23.318;2023-10-31T03:31:12;94616.78;;;7.91;100.00
59009;BME280;44794;42.652;23.318;2023-10-31T03:33:37;94617.81;;;7.89;100.00
59009;BME280;44794;42.652;23.318;2023-10-31T03:36:03;94616.81;;;7.77;100.00
59009;BME280;44794;42.652;23.318;2023-10-31T03:38:30;94616.94;;;7.76;100.00
59009;BME280;44794;42.652;23.318;2023-10-31T03:40:55;94609.38;;;7.73;100.00
59009;BME280;44794;42.652;23.318;2023-10-31T03:43:21;94598.41;;;7.69;100.00
59009;BME280;44794;42.652;23.318;2023-10-31T03:45:46;94596.41;;;7.60;100.00
59009;BME280;44794;42.652;23.318;2023-10-31T03:48:16;94597.22;;;7.61;100.00
59009;BME280;44794;42.652;23.318;2023-10-31T03:50:42;94598.34;;;7.57;100.00
59009;BME280;44794;42.652;23.318;2023-10-31T03:53:07;94602.09;;;7.65;100.00
59009;BME280;44794;42.652;23.318;2023-10-31T03:55:33;94599.75;;;7.75;100.00
59009;BME280;44794;42.652;23.318;2023-10-31T03:57:58;94598.06;;;7.88;100.00
59009;BME280;44794;42.652;23.318;2023-10-31T04:00:24;94597.13;;;7.89;100.00
59009;BME280;44794;42.652;23.318;2023-10-31T04:02:49;94596.16;;;8.04;100.00
59009;BME280;44794;42.652;23.318;2023-10-31T04:05:15;94606.50;;;8.04;100.00
59009;BME280;44794;42.652;23.318;2023-10-31T04:07:40;94611.03;;;8.00;100.00
59009;BME280;44794;42.652;23.318;2023-10-31T04:10:06;94610.69;;;7.92;100.00
59009;BME280;44794;42.652;23.318;2023-10-31T04:12:31;94621.03;;;7.92;100.00
59009;BME280;44794;42.652;23.318;2023-10-31T04:14:57;94617.28;;;7.84;100.00
59009;BME280;44794;42.652;23.318;2023-10-31T04:17:22;94615.22;;;7.89;100.00
59009;BME280;44794;42.652;23.318;2023-10-31T04:19:48;94602.31;;;7.89;100.00
59009;BME280;44794;42.652;23.318;2023-10-31T04:22:13;94601.59;;;7.87;100.00
59009;BME280;44794;42.652;23.318;2023-10-31T04:24:39;94596.59;;;7.84;100.00
59009;BME280;44794;42.652;23.318;2023-10-31T04:27:04;94602.59;;;7.84;100.00
59009;BME280;44794;42.652;23.318;2023-10-31T04:29:30;94581.50;;;7.78;100.00
59009;BME280;44794;42.652;23.318;2023-10-31T04:31:55;94593.97;;;7.71;100.00
59009;BME280;44794;42.652;23.318;2023-10-31T04:34:20;94592.03;;;7.61;100.00
59009;BME280;44794;42.652;23.318;2023-10-31T04:36:46;94593.06;;;7.58;100.00
59009;BME280;44794;42.652;23.318;2023-10-31T04:39:11;94593.34;;;7.54;100.00
59009;BME280;44794;42.652;23.318;2023-10-31T04:41:37;94590.75;;;7.54;100.00
59009;BME280;44794;42.652;23.318;2023-10-31T04:44:02;94598.72;;;7.51;100.00
59009;BME280;44794;42.652;23.318;2023-10-31T04:46:28;94595.41;;;7.49;100.00
59009;BME280;44794;42.652;23.318;2023-10-31T04:48:53;94597.06;;;7.50;100.00
59009;BME280;44794;42.652;23.318;2023-10-31T04:51:19;94588.38;;;7.51;100.00
59009;BME280;44794;42.652;23.318;2023-10-31T04:53:44;94608.41;;;7.47;100.00
59009;BME280;44794;42.652;23.318;2023-10-31T04:56:13;94605.94;;;7.32;100.00
59009;BME280;44794;42.652;23.318;2023-10-31T04:58:43;94614.81;;;7.28;100.00
59009;BME280;44794;42.652;23.318;2023-10-31T05:01:12;94615.63;;;7.29;100.00
59009;BME280;44794;42.652;23.318;2023-10-31T05:03:38;94618.78;;;7.34;100.00
59009;BME280;44794;42.652;23.318;2023-10-31T05:06:04;94603.53;;;7.29;100.00
59009;BME280;44794;42.652;23.318;2023-10-31T05:08:30;94609.44;;;7.45;100.00
59009;BME280;44794;42.652;23.318;2023-10-31T05:10:56;94613.59;;;7.47;100.00
59009;BME280;44794;42.652;23.318;2023-10-31T05:13:22;94613.13;;;7.41;100.00
59009;BME280;44794;42.652;23.318;2023-10-31T05:15:48;94611.19;;;7.44;100.00
59009;BME280;44794;42.652;23.318;2023-10-31T05:18:13;94613.47;;;7.49;100.00
59009;BME280;44794;42.652;23.318;2023-10-31T05:20:38;94623.66;;;7.52;100.00
59009;BME280;44794;42.652;23.318;2023-10-31T05:23:04;94629.53;;;7.54;100.00
59009;BME280;44794;42.652;23.318;2023-10-31T05:25:30;94623.91;;;7.61;100.00
59009;BME280;44794;42.652;23.318;2023-10-31T05:27:56;94609.56;;;7.70;100.00
59009;BME280;44794;42.652;23.318;2023-10-31T05:30:21;94622.75;;;7.79;100.00
59009;BME280;44794;42.652;23.318;2023-10-31T05:32:47;94610.66;;;7.80;100.00
59009;BME280;44794;42.652;23.318;2023-10-31T05:35:12;94611.94;;;7.87;100.00
59009;BME280;44794;42.652;23.318;2023-10-31T05:37:38;94625.19;;;7.95;100.00
59009;BME280;44794;42.652;23.318;2023-10-31T05:40:03;94622.13;;;8.02;100.00
59009;BME280;44794;42.652;23.318;2023-10-31T05:42:29;94629.59;;;8.07;100.00
59009;BME280;44794;42.652;23.318;2023-10-31T05:44:55;94626.78;;;8.23;100.00
59009;BME280;44794;42.652;23.318;2023-10-31T05:47:22;94619.06;;;8.36;100.00
59009;BME280;44794;42.652;23.318;2023-10-31T05:49:47;94615.03;;;8.44;100.00
59009;BME280;44794;42.652;23.318;2023-10-31T05:52:13;94621.69;;;8.48;100.00
59009;BME280;44794;42.652;23.318;2023-10-31T05:54:38;94624.50;;;8.58;100.00
59009;BME280;44794;42.652;23.318;2023-10-31T05:57:04;94627.31;;;8.67;100.00
59009;BME280;44794;42.652;23.318;2023-10-31T05:59:29;94656.53;;;8.82;100.00
59009;BME280;44794;42.652;23.318;2023-10-31T06:01:55;94668.06;;;8.90;100.00
59009;BME280;44794;42.652;23.318;2023-10-31T06:04:20;94671.06;;;8.84;100.00
59009;BME280;44794;42.652;23.318;2023-10-31T06:06:46;94671.91;;;8.97;100.00
59009;BME280;44794;42.652;23.318;2023-10-31T06:09:11;94674.28;;;9.00;100.00
59009;BME280;44794;42.652;23.318;2023-10-31T06:11:41;94681.31;;;9.10;100.00
59009;BME280;44794;42.652;23.318;2023-10-31T06:14:07;94681.13;;;9.13;100.00
59009;BME280;44794;42.652;23.318;2023-10-31T06:16:33;94685.72;;;9.22;100.00
59009;BME280;44794;42.652;23.318;2023-10-31T06:18:58;94689.94;;;9.36;100.00
59009;BME280;44794;42.652;23.318;2023-10-31T06:21:24;94680.63;;;9.46;100.00
59009;BME280;44794;42.652;23.318;2023-10-31T06:23:49;94682.28;;;9.47;100.00
59009;BME280;44794;42.652;23.318;2023-10-31T06:26:15;94688.59;;;9.55;100.00
59009;BME280;44794;42.652;23.318;2023-10-31T06:28:40;94689.09;;;9.60;100.00
59009;BME280;44794;42.652;23.318;2023-10-31T06:31:06;94692.53;;;9.61;100.00
59009;BME280;44794;42.652;23.318;2023-10-31T06:33:31;94695.63;;;9.78;100.00
59009;BME280;44794;42.652;23.318;2023-10-31T06:35:57;94693.97;;;9.77;100.00
59009;BME280;44794;42.652;23.318;2023-10-31T06:38:22;94699.53;;;9.83;100.00
59009;BME280;44794;42.652;23.318;2023-10-31T06:40:48;94695.50;;;9.92;100.00
59009;BME280;44794;42.652;23.318;2023-10-31T06:43:13;94693.84;;;10.03;100.00
59009;BME280;44794;42.652;23.318;2023-10-31T06:45:38;94684.47;;;10.13;100.00
59009;BME280;44794;42.652;23.318;2023-10-31T06:48:04;94678.53;;;10.24;100.00
59009;BME280;44794;42.652;23.318;2023-10-31T06:50:32;94687.53;;;10.31;100.00
59009;BME280;44794;42.652;23.318;2023-10-31T06:52:58;94680.66;;;10.42;100.00
59009;BME280;44794;42.652;23.318;2023-10-31T06:55:23;94680.94;;;10.50;100.00
59009;BME280;44794;42.652;23.318;2023-10-31T06:57:49;94689.28;;;10.66;100.00
59009;BME280;44794;42.652;23.318;2023-10-31T07:00:14;94680.47;;;10.79;100.00
59009;BME280;44794;42.652;23.318;2023-10-31T07:02:40;94688.19;;;10.92;100.00
59009;BME280;44794;42.652;23.318;2023-10-31T07:05:06;94689.16;;;11.02;100.00
59009;BME280;44794;42.652;23.318;2023-10-31T07:07:31;94684.59;;;11.16;100.00
59009;BME280;44794;42.652;23.318;2023-10-31T07:09:56;94693.72;;;11.22;100.00
59009;BME280;44794;42.652;23.318;2023-10-31T07:12:22;94695.63;;;11.30;100.00
59009;BME280;44794;42.652;23.318;2023-10-31T07:14:47;94689.06;;;11.48;100.00
59009;BME280;44794;42.652;23.318;2023-10-31T07:17:13;94678.81;;;11.58;100.00
59009;BME280;44794;42.652;23.318;2023-10-31T07:19:38;94691.34;;;11.64;100.00
59009;BME280;44794;42.652;23.318;2023-10-31T07:22:04;94695.25;;;11.69;100.00
59009;BME280;44794;42.652;23.318;2023-10-31T07:24:29;94689.47;;;11.66;100.00
59009;BME280;44794;42.652;23.318;2023-10-31T07:26:54;94690.16;;;11.79;100.00
59009;BME280;44794;42.652;23.318;2023-10-31T07:29:20;94686.47;;;11.92;100.00
59009;BME280;44794;42.652;23.318;2023-10-31T07:31:45;94682.25;;;12.02;100.00
59009;BME280;44794;42.652;23.318;2023-10-31T07:34:11;94684.38;;;12.19;100.00
59009;BME280;44794;42.652;23.318;2023-10-31T07:36:37;94680.31;;;12.26;100.00
59009;BME280;44794;42.652;23.318;2023-10-31T07:39:04;94683.63;;;12.39;100.00
59009;BME280;44794;42.652;23.318;2023-10-31T07:41:30;94671.41;;;12.50;100.00
59009;BME280;44794;42.652;23.318;2023-10-31T07:43:55;94672.16;;;12.62;100.00
59009;BME280;44794;42.652;23.318;2023-10-31T07:46:20;94667.88;;;12.72;100.00
59009;BME280;44794;42.652;23.318;2023-10-31T07:48:46;94669.16;;;12.88;100.00
59009;BME280;44794;42.652;23.318;2023-10-31T07:51:12;94661.88;;;13.02;100.00
59009;BME280;44794;42.652;23.318;2023-10-31T07:53:37;94665.56;;;13.20;100.00
59009;BME280;44794;42.652;23.318;2023-10-31T07:56:03;94654.56;;;13.37;100.00
59009;BME280;44794;42.652;23.318;2023-10-31T07:58:28;94658.94;;;13.57;100.00
59009;BME280;44794;42.652;23.318;2023-10-31T08:00:54;94661.47;;;13.68;100.00
59009;BME280;44794;42.652;23.318;2023-10-31T08:03:19;94647.66;;;13.86;100.00
59009;BME280;44794;42.652;23.318;2023-10-31T08:05:45;94650.63;;;14.02;100.00
59009;BME280;44794;42.652;23.318;2023-10-31T08:08:11;94648.88;;;14.12;100.00
59009;BME280;44794;42.652;23.318;2023-10-31T08:10:36;94648.28;;;14.29;98.51
59009;BME280;44794;42.652;23.318;2023-10-31T08:13:02;94663.97;;;14.38;97.23
59009;BME280;44794;42.652;23.318;2023-10-31T08:15:27;94662.47;;;14.45;95.48
59009;BME280;44794;42.652;23.318;2023-10-31T08:17:52;94664.94;;;14.56;93.40
59009;BME280;44794;42.652;23.318;2023-10-31T08:20:18;94654.41;;;14.67;93.00
59009;BME280;44794;42.652;23.318;2023-10-31T08:22:43;94648.63;;;14.73;91.64
59009;BME280;44794;42.652;23.318;2023-10-31T08:25:09;94649.72;;;14.80;91.61
59009;BME280;44794;42.652;23.318;2023-10-31T08:27:35;94646.16;;;14.91;89.92
59009;BME280;44794;42.652;23.318;2023-10-31T08:30:00;94640.22;;;14.98;89.10
59009;BME280;44794;42.652;23.318;2023-10-31T08:32:27;94632.81;;;15.03;89.43
59009;BME280;44794;42.652;23.318;2023-10-31T08:34:54;94627.00;;;15.18;87.87
59009;BME280;44794;42.652;23.318;2023-10-31T08:37:19;94623.03;;;15.14;87.15
59009;BME280;44794;42.652;23.318;2023-10-31T08:39:44;94619.16;;;15.28;87.30
59009;BME280;44794;42.652;23.318;2023-10-31T08:42:10;94620.00;;;15.38;86.69
59009;BME280;44794;42.652;23.318;2023-10-31T08:44:35;94617.19;;;15.49;86.04
59009;BME280;44794;42.652;23.318;2023-10-31T08:47:03;94617.31;;;15.57;84.50
59009;BME280;44794;42.652;23.318;2023-10-31T08:49:29;94609.59;;;15.65;83.48
59009;BME280;44794;42.652;23.318;2023-10-31T08:51:54;94598.50;;;15.80;80.79
59009;BME280;44794;42.652;23.318;2023-10-31T08:54:19;94591.19;;;15.83;80.74
59009;BME280;44794;42.652;23.318;2023-10-31T08:56:45;94595.28;;;15.86;80.79
59009;BME280;44794;42.652;23.318;2023-10-31T08:59:10;94582.56;;;16.00;80.55
59009;BME280;44794;42.652;23.318;2023-10-31T09:01:36;94584.84;;;16.13;80.25
59009;BME280;44794;42.652;23.318;2023-10-31T09:04:01;94588.75;;;16.26;78.64
59009;BME280;44794;42.652;23.318;2023-10-31T09:06:27;94594.91;;;16.44;75.03
59009;BME280;44794;42.652;23.318;2023-10-31T09:08:52;94588.38;;;16.48;74.11
59009;BME280;44794;42.652;23.318;2023-10-31T09:11:18;94573.94;;;16.61;72.36
59009;BME280;44794;42.652;23.318;2023-10-31T09:13:44;94574.41;;;16.74;72.72
59009;BME280;44794;42.652;23.318;2023-10-31T09:16:09;94568.75;;;16.87;70.26
59009;BME280;44794;42.652;23.318;2023-10-31T09:18:35;94566.59;;;16.82;68.79
59009;BME280;44794;42.652;23.318;2023-10-31T09:21:00;94567.31;;;16.92;67.78
59009;BME280;44794;42.652;23.318;2023-10-31T09:23:26;94564.47;;;17.03;67.49
59009;BME280;44794;42.652;23.318;2023-10-31T09:25:51;94560.47;;;17.17;65.23
59009;BME280;44794;42.652;23.318;2023-10-31T09:28:17;94556.97;;;17.08;65.72
59009;BME280;44794;42.652;23.318;2023-10-31T09:30:42;94554.50;;;17.07;64.88
59009;BME280;44794;42.652;23.318;2023-10-31T09:33:09;94554.84;;;17.29;62.59
59009;BME280;44794;42.652;23.318;2023-10-31T09:35:34;94547.41;;;17.42;61.23
59009;BME280;44794;42.652;23.318;2023-10-31T09:38:00;94554.88;;;17.54;60.52
59009;BME280;44794;42.652;23.318;2023-10-31T09:40:25;94540.84;;;17.46;60.55
59009;BME280;44794;42.652;23.318;2023-10-31T09:42:51;94534.50;;;17.56;60.75
59009;BME280;44794;42.652;23.318;2023-10-31T09:45:17;94530.69;;;17.76;59.23
59009;BME280;44794;42.652;23.318;2023-10-31T09:47:43;94523.66;;;17.85;58.91
59009;BME280;44794;42.652;23.318;2023-10-31T09:50:09;94515.31;;;17.89;58.49
59009;BME280;44794;42.652;23.318;2023-10-31T09:52:38;94510.47;;;18.10;57.56
59009;BME280;44794;42.652;23.318;2023-10-31T09:55:05;94514.47;;;18.22;57.16
59009;BME280;44794;42.652;23.318;2023-10-31T09:57:31;94510.19;;;18.21;57.20
59009;BME280;44794;42.652;23.318;2023-10-31T09:59:56;94517.28;;;18.36;56.44
59009;BME280;44794;42.652;23.318;2023-10-31T10:02:22;94505.81;;;18.53;55.24
59009;BME280;44794;42.652;23.318;2023-10-31T10:04:48;94508.78;;;18.66;54.51
59009;BME280;44794;42.652;23.318;2023-10-31T10:07:16;94499.25;;;18.73;53.87
59009;BME280;44794;42.652;23.318;2023-10-31T10:09:45;94488.56;;;18.75;53.08
59009;BME280;44794;42.652;23.318;2023-10-31T10:12:12;94481.31;;;18.77;53.96
59009;BME280;44794;42.652;23.318;2023-10-31T10:14:41;94481.16;;;19.02;53.86
59009;BME280;44794;42.652;23.318;2023-10-31T10:17:19;94482.66;;;19.12;52.36
59009;BME280;44794;42.652;23.318;2023-10-31T10:19:45;94466.81;;;19.36;51.98
59009;BME280;44794;42.652;23.318;2023-10-31T10:22:11;94475.00;;;19.57;51.12
59009;BME280;44794;42.652;23.318;2023-10-31T10:24:39;94469.53;;;19.66;50.00
59009;BME280;44794;42.652;23.318;2023-10-31T10:27:04;94467.56;;;19.61;49.54
59009;BME280;44794;42.652;23.318;2023-10-31T10:29:30;94461.66;;;19.59;49.38
59009;BME280;44794;42.652;23.318;2023-10-31T10:31:55;94473.25;;;19.80;48.19
59009;BME280;44794;42.652;23.318;2023-10-31T10:34:22;94476.84;;;19.87;47.37
59009;BME280;44794;42.652;23.318;2023-10-31T10:36:48;94477.31;;;19.98;47.04
59009;BME280;44794;42.652;23.318;2023-10-31T10:39:21;94470.84;;;20.09;46.01
59009;BME280;44794;42.652;23.318;2023-10-31T10:41:52;94465.88;;;20.14;46.18
59009;BME280;44794;42.652;23.318;2023-10-31T10:44:27;94457.38;;;20.04;45.73
59009;BME280;44794;42.652;23.318;2023-10-31T10:46:56;94443.72;;;20.23;45.18
59009;BME280;44794;42.652;23.318;2023-10-31T10:49:24;94440.28;;;20.44;45.07
59009;BME280;44794;42.652;23.318;2023-10-31T10:51:58;94433.91;;;20.61;44.81
59009;BME280;44794;42.652;23.318;2023-10-31T10:54:34;94431.91;;;20.63;45.31
59009;BME280;44794;42.652;23.318;2023-10-31T10:57:14;94428.84;;;20.82;44.10
59009;BME280;44794;42.652;23.318;2023-10-31T10:59:42;94424.50;;;21.04;43.71
59009;BME280;44794;42.652;23.318;2023-10-31T11:02:11;94415.59;;;21.19;44.00
59009;BME280;44794;42.652;23.318;2023-10-31T11:04:38;94416.16;;;21.29;42.81
59009;BME280;44794;42.652;23.318;2023-10-31T11:07:05;94427.53;;;21.15;42.18
59009;BME280;44794;42.652;23.318;2023-10-31T11:09:31;94431.53;;;21.11;41.52
59009;BME280;44794;42.652;23.318;2023-10-31T11:11:57;94422.69;;;21.04;40.92
59009;BME280;44794;42.652;23.318;2023-10-31T11:14:23;94422.50;;;21.06;40.88
59009;BME280;44794;42.652;23.318;2023-10-31T11:16:55;94421.59;;;21.13;38.47
59009;BME280;44794;42.652;23.318;2023-10-31T11:19:22;94426.41;;;21.10;38.43
59009;BME280;44794;42.652;23.318;2023-10-31T11:22:00;94417.94;;;21.14;37.56
59009;BME280;44794;42.652;23.318;2023-10-31T11:24:31;94409.56;;;21.11;36.93
59009;BME280;44794;42.652;23.318;2023-10-31T11:27:02;94412.13;;;21.04;37.01
59009;BME280;44794;42.652;23.318;2023-10-31T11:29:28;94403.03;;;21.21;35.93
59009;BME280;44794;42.652;23.318;2023-10-31T11:31:55;94403.88;;;21.21;35.49
59009;BME280;44794;42.652;23.318;2023-10-31T11:34:29;94395.66;;;21.31;34.77
59009;BME280;44794;42.652;23.318;2023-10-31T11:37:17;94385.91;;;21.46;35.72
59009;BME280;44794;42.652;23.318;2023-10-31T11:39:40;94383.16;;;21.83;35.65
59009;BME280;44794;42.652;23.318;2023-10-31T11:42:17;94383.94;;;22.12;35.63
59009;BME280;44794;42.652;23.318;2023-10-31T11:44:55;94367.50;;;22.37;35.47
59009;BME280;44794;42.652;23.318;2023-10-31T11:47:22;94362.03;;;22.60;35.17
59009;BME280;44794;42.652;23.318;2023-10-31T11:49:48;94360.84;;;22.62;34.89
59009;BME280;44794;42.652;23.318;2023-10-31T11:52:17;94362.44;;;22.84;35.54
59009;BME280;44794;42.652;23.318;2023-10-31T11:54:43;94357.88;;;22.99;33.57
59009;BME280;44794;42.652;23.318;2023-10-31T11:57:08;94359.06;;;22.96;32.94
59009;BME280;44794;42.652;23.318;2023-10-31T11:59:38;94352.59;;;22.99;33.30
59009;BME280;44794;42.652;23.318;2023-10-31T12:02:14;94347.44;;;22.91;33.73
59009;BME280;44794;42.652;23.318;2023-10-31T12:04:39;94346.53;;;23.05;33.55
59009;BME280;44794;42.652;23.318;2023-10-31T12:07:05;94347.66;;;22.96;34.03
59009;BME280;44794;42.652;23.318;2023-10-31T12:09:31;94331.69;;;22.89;34.44
59009;BME280;44794;42.652;23.318;2023-10-31T12:11:56;94324.88;;;23.01;34.98
59009;BME280;44794;42.652;23.318;2023-10-31T12:14:21;94316.84;;;23.16;35.20
59009;BME280;44794;42.652;23.318;2023-10-31T12:16:47;94319.69;;;23.14;35.17
59009;BME280;44794;42.652;23.318;2023-10-31T12:19:12;94316.13;;;23.35;34.51
59009;BME280;44794;42.652;23.318;2023-10-31T12:24:13;94317.16;;;23.34;34.43
59009;BME280;44794;42.652;23.318;2023-10-31T12:26:39;94319.88;;;23.47;34.61
59009;BME280;44794;42.652;23.318;2023-10-31T12:29:12;94308.47;;;23.52;33.81
59009;BME280;44794;42.652;23.318;2023-10-31T12:31:42;94313.25;;;23.30;34.04
59009;BME280;44794;42.652;23.318;2023-10-31T12:34:08;94300.84;;;23.30;34.95
59009;BME280;44794;42.652;23.318;2023-10-31T12:36:35;94293.91;;;23.02;35.27
59009;BME280;44794;42.652;23.318;2023-10-31T12:39:02;94280.66;;;23.02;35.41
59009;BME280;44794;42.652;23.318;2023-10-31T12:41:28;94284.78;;;22.77;36.03
59009;BME280;44794;42.652;23.318;2023-10-31T12:43:54;94268.13;;;22.56;36.68
59009;BME280;44794;42.652;23.318;2023-10-31T12:46:27;94261.09;;;22.69;36.61